Airport View

Enter AWOS ICAO identifier for current METAR.

ex. KFNL

PABV 251156Z AUTO 06003KT 10SM -RA OVC009 09/08 A2924 RMK AO2 SLP907 P0001 60001 70006 T00890083 10100 20089 58001

25 Sep 2020 12:10

Frequency: 135.55

Phone: 907-688-0826

Other Area AWOS: PAWS - PAFR - PAED - PAMR

TAF PAED 251000Z 2510/2616 VRB06KT 9000 -DZ VCFG BKN002 BKN060 QNH2922INS BECMG 2511/2512 VRB06KT 0800 FG BKN002 BKN060 QNH2922INS BECMG 2517/2518 VRB06KT 9999 VCSH SCT010 BKN050 OVC070 QNH2923INS TEMPO 2518/2522 9000 -DZ BECMG 2600/2601 VRB06KT 9999 VCSH FEW015 BKN060 QNH2927INS TX11/2601Z TN07/2516Z